Novi Sad Rimski Sancevi, Serbia
Current Conditions -  °F | °C
As of 4:30 PM on Friday 19 Dec 2014 (Local Time) from LYBT Reporting Station
Clear Clear  
Wind Chill: 54°   Ceiling: Unl
Heat Index: 54°   Visibility: 6mi
Dew Point: 45°   Wind: 3mph
Humidity: 72%   Direction: 240°WSW
Pressure: 30.12"   Gusts: NA
Location:  45.33°N, 19.85°E
Report Text: LYBT 191430Z 24003KT CAVOK 12/07 Q1020 NOSIG
Loading
Personal Weather Stations






























Interactive Weather Map New forecast layout! Learn more

10-Day Weather Forecast

Advertisements
Track Severe Weather on mobile